sensor_id;sensor_type;location;lat;lon;timestamp;P1;durP1;ratioP1;P2;durP2;ratioP2
49840;SDS011;35738;49.890;5.930;2023-08-31T00:01:16;7.65;;;3.83;;
49840;SDS011;35738;49.890;5.930;2023-08-31T00:03:42;7.43;;;3.70;;
49840;SDS011;35738;49.890;5.930;2023-08-31T00:06:10;7.78;;;3.95;;
49840;SDS011;35738;49.890;5.930;2023-08-31T00:08:37;6.60;;;3.55;;
49840;SDS011;35738;49.890;5.930;2023-08-31T00:11:03;8.70;;;3.72;;
49840;SDS011;35738;49.890;5.930;2023-08-31T00:13:30;7.38;;;3.17;;
49840;SDS011;35738;49.890;5.930;2023-08-31T00:15:56;4.45;;;3.35;;
49840;SDS011;35738;49.890;5.930;2023-08-31T00:18:24;7.70;;;3.40;;
49840;SDS011;35738;49.890;5.930;2023-08-31T00:20:51;8.00;;;3.42;;
49840;SDS011;35738;49.890;5.930;2023-08-31T00:23:17;11.20;;;3.67;;
49840;SDS011;35738;49.890;5.930;2023-08-31T00:25:45;7.72;;;3.40;;
49840;SDS011;35738;49.890;5.930;2023-08-31T00:28:14;8.25;;;3.58;;
49840;SDS011;35738;49.890;5.930;2023-08-31T00:30:42;8.52;;;3.55;;
49840;SDS011;35738;49.890;5.930;2023-08-31T00:33:11;6.80;;;3.58;;
49840;SDS011;35738;49.890;5.930;2023-08-31T00:35:38;6.65;;;3.47;;
49840;SDS011;35738;49.890;5.930;2023-08-31T00:38:12;9.15;;;3.78;;
49840;SDS011;35738;49.890;5.930;2023-08-31T00:40:40;9.85;;;3.85;;
49840;SDS011;35738;49.890;5.930;2023-08-31T00:43:08;5.28;;;3.60;;
49840;SDS011;35738;49.890;5.930;2023-08-31T00:45:35;9.93;;;3.88;;
49840;SDS011;35738;49.890;5.930;2023-08-31T00:48:04;13.55;;;3.90;;
49840;SDS011;35738;49.890;5.930;2023-08-31T00:50:31;9.43;;;3.72;;
49840;SDS011;35738;49.890;5.930;2023-08-31T00:52:57;7.45;;;3.60;;
49840;SDS011;35738;49.890;5.930;2023-08-31T00:55:24;8.40;;;3.65;;
49840;SDS011;35738;49.890;5.930;2023-08-31T00:57:50;9.25;;;4.30;;
49840;SDS011;35738;49.890;5.930;2023-08-31T01:00:17;11.13;;;3.97;;
49840;SDS011;35738;49.890;5.930;2023-08-31T01:02:59;12.13;;;3.97;;
49840;SDS011;35738;49.890;5.930;2023-08-31T01:05:33;8.55;;;3.65;;
49840;SDS011;35738;49.890;5.930;2023-08-31T01:13:29;9.50;;;3.50;;
49840;SDS011;35738;49.890;5.930;2023-08-31T01:15:59;7.85;;;3.67;;
49840;SDS011;35738;49.890;5.930;2023-08-31T01:18:29;9.45;;;3.58;;
49840;SDS011;35738;49.890;5.930;2023-08-31T01:20:59;11.10;;;3.58;;
49840;SDS011;35738;49.890;5.930;2023-08-31T01:23:43;8.20;;;3.88;;
49840;SDS011;35738;49.890;5.930;2023-08-31T01:26:10;10.60;;;3.63;;
49840;SDS011;35738;49.890;5.930;2023-08-31T01:28:38;7.97;;;3.50;;
49840;SDS011;35738;49.890;5.930;2023-08-31T01:31:04;10.10;;;4.03;;
49840;SDS011;35738;49.890;5.930;2023-08-31T01:33:35;8.93;;;3.67;;
49840;SDS011;35738;49.890;5.930;2023-08-31T01:36:01;7.38;;;3.40;;
49840;SDS011;35738;49.890;5.930;2023-08-31T01:38:34;9.60;;;3.60;;
49840;SDS011;35738;49.890;5.930;2023-08-31T01:41:07;8.65;;;4.18;;
49840;SDS011;35738;49.890;5.930;2023-08-31T01:43:37;7.75;;;3.58;;
49840;SDS011;35738;49.890;5.930;2023-08-31T01:46:06;7.85;;;3.85;;
49840;SDS011;35738;49.890;5.930;2023-08-31T01:48:39;11.70;;;3.75;;
49840;SDS011;35738;49.890;5.930;2023-08-31T01:51:07;10.45;;;3.80;;
49840;SDS011;35738;49.890;5.930;2023-08-31T01:53:34;12.13;;;3.95;;
49840;SDS011;35738;49.890;5.930;2023-08-31T01:56:01;9.95;;;4.05;;
49840;SDS011;35738;49.890;5.930;2023-08-31T01:58:28;11.65;;;3.90;;
49840;SDS011;35738;49.890;5.930;2023-08-31T02:00:54;6.43;;;3.42;;
49840;SDS011;35738;49.890;5.930;2023-08-31T02:03:21;11.23;;;3.58;;
49840;SDS011;35738;49.890;5.930;2023-08-31T02:05:48;7.82;;;3.53;;
49840;SDS011;35738;49.890;5.930;2023-08-31T02:08:14;6.35;;;3.60;;
49840;SDS011;35738;49.890;5.930;2023-08-31T02:10:44;9.25;;;3.67;;
49840;SDS011;35738;49.890;5.930;2023-08-31T02:13:13;10.70;;;3.47;;
49840;SDS011;35738;49.890;5.930;2023-08-31T02:15:40;7.45;;;3.60;;
49840;SDS011;35738;49.890;5.930;2023-08-31T02:18:07;8.40;;;3.63;;
49840;SDS011;35738;49.890;5.930;2023-08-31T02:20:34;8.93;;;3.35;;
49840;SDS011;35738;49.890;5.930;2023-08-31T02:23:00;10.15;;;3.50;;
49840;SDS011;35738;49.890;5.930;2023-08-31T02:25:27;7.03;;;3.40;;
49840;SDS011;35738;49.890;5.930;2023-08-31T02:27:56;8.32;;;3.38;;
49840;SDS011;35738;49.890;5.930;2023-08-31T02:30:23;7.63;;;3.22;;
49840;SDS011;35738;49.890;5.930;2023-08-31T02:32:49;11.25;;;3.05;;
49840;SDS011;35738;49.890;5.930;2023-08-31T02:35:16;9.55;;;3.20;;
49840;SDS011;35738;49.890;5.930;2023-08-31T02:37:42;6.95;;;2.90;;
49840;SDS011;35738;49.890;5.930;2023-08-31T02:40:09;8.27;;;3.30;;
49840;SDS011;35738;49.890;5.930;2023-08-31T02:42:35;11.00;;;3.40;;
49840;SDS011;35738;49.890;5.930;2023-08-31T02:45:02;9.13;;;3.33;;
49840;SDS011;35738;49.890;5.930;2023-08-31T02:47:29;10.80;;;3.20;;
49840;SDS011;35738;49.890;5.930;2023-08-31T02:49:55;6.13;;;3.00;;
49840;SDS011;35738;49.890;5.930;2023-08-31T02:52:22;11.27;;;3.15;;
49840;SDS011;35738;49.890;5.930;2023-08-31T02:54:48;8.15;;;3.22;;
49840;SDS011;35738;49.890;5.930;2023-08-31T02:57:16;8.48;;;3.20;;
49840;SDS011;35738;49.890;5.930;2023-08-31T02:59:48;8.00;;;3.03;;
49840;SDS011;35738;49.890;5.930;2023-08-31T03:02:16;8.48;;;3.20;;
49840;SDS011;35738;49.890;5.930;2023-08-31T03:04:42;9.77;;;2.88;;
49840;SDS011;35738;49.890;5.930;2023-08-31T03:07:09;10.30;;;3.17;;
49840;SDS011;35738;49.890;5.930;2023-08-31T03:09:39;7.10;;;2.75;;
49840;SDS011;35738;49.890;5.930;2023-08-31T03:12:06;9.20;;;2.88;;
49840;SDS011;35738;49.890;5.930;2023-08-31T03:14:32;7.00;;;3.10;;
49840;SDS011;35738;49.890;5.930;2023-08-31T03:16:59;6.57;;;2.92;;
49840;SDS011;35738;49.890;5.930;2023-08-31T03:19:25;6.35;;;2.90;;
49840;SDS011;35738;49.890;5.930;2023-08-31T03:21:52;9.02;;;3.05;;
49840;SDS011;35738;49.890;5.930;2023-08-31T03:24:18;5.68;;;3.00;;
49840;SDS011;35738;49.890;5.930;2023-08-31T03:26:45;8.02;;;2.90;;
49840;SDS011;35738;49.890;5.930;2023-08-31T03:29:11;9.25;;;2.85;;
49840;SDS011;35738;49.890;5.930;2023-08-31T03:31:37;6.22;;;3.17;;
49840;SDS011;35738;49.890;5.930;2023-08-31T03:34:04;5.93;;;3.10;;
49840;SDS011;35738;49.890;5.930;2023-08-31T03:36:30;7.85;;;3.05;;
49840;SDS011;35738;49.890;5.930;2023-08-31T03:38:56;7.00;;;3.15;;
49840;SDS011;35738;49.890;5.930;2023-08-31T03:41:23;8.23;;;3.10;;
49840;SDS011;35738;49.890;5.930;2023-08-31T03:43:50;6.50;;;3.13;;
49840;SDS011;35738;49.890;5.930;2023-08-31T03:46:16;5.03;;;2.70;;
49840;SDS011;35738;49.890;5.930;2023-08-31T03:48:44;7.43;;;2.90;;
49840;SDS011;35738;49.890;5.930;2023-08-31T03:51:10;6.28;;;2.85;;
49840;SDS011;35738;49.890;5.930;2023-08-31T03:53:37;7.85;;;2.95;;
49840;SDS011;35738;49.890;5.930;2023-08-31T03:56:03;8.77;;;3.08;;
49840;SDS011;35738;49.890;5.930;2023-08-31T03:58:30;5.10;;;2.90;;
49840;SDS011;35738;49.890;5.930;2023-08-31T04:00:57;7.05;;;2.75;;
49840;SDS011;35738;49.890;5.930;2023-08-31T04:03:24;11.35;;;3.15;;
49840;SDS011;35738;49.890;5.930;2023-08-31T04:05:56;8.18;;;3.13;;
49840;SDS011;35738;49.890;5.930;2023-08-31T04:08:23;8.88;;;3.15;;
49840;SDS011;35738;49.890;5.930;2023-08-31T04:10:49;12.63;;;3.47;;
49840;SDS011;35738;49.890;5.930;2023-08-31T04:13:16;10.75;;;3.25;;
49840;SDS011;35738;49.890;5.930;2023-08-31T04:15:42;6.05;;;3.00;;
49840;SDS011;35738;49.890;5.930;2023-08-31T04:18:09;10.13;;;2.97;;
49840;SDS011;35738;49.890;5.930;2023-08-31T04:20:35;11.55;;;3.45;;
49840;SDS011;35738;49.890;5.930;2023-08-31T04:23:02;9.02;;;3.20;;
49840;SDS011;35738;49.890;5.930;2023-08-31T04:25:29;9.27;;;3.75;;
49840;SDS011;35738;49.890;5.930;2023-08-31T04:27:57;11.27;;;3.20;;
49840;SDS011;35738;49.890;5.930;2023-08-31T04:30:24;6.00;;;3.30;;
49840;SDS011;35738;49.890;5.930;2023-08-31T04:32:50;11.50;;;3.45;;
49840;SDS011;35738;49.890;5.930;2023-08-31T04:35:17;7.25;;;3.10;;
49840;SDS011;35738;49.890;5.930;2023-08-31T04:37:43;8.68;;;3.25;;
49840;SDS011;35738;49.890;5.930;2023-08-31T04:40:11;7.63;;;3.10;;
49840;SDS011;35738;49.890;5.930;2023-08-31T04:42:38;7.05;;;3.28;;
49840;SDS011;35738;49.890;5.930;2023-08-31T04:45:06;8.93;;;3.38;;
49840;SDS011;35738;49.890;5.930;2023-08-31T04:47:33;6.28;;;2.90;;
49840;SDS011;35738;49.890;5.930;2023-08-31T04:50:00;8.35;;;3.45;;
49840;SDS011;35738;49.890;5.930;2023-08-31T04:52:27;9.57;;;3.72;;
49840;SDS011;35738;49.890;5.930;2023-08-31T04:54:53;11.65;;;3.35;;
49840;SDS011;35738;49.890;5.930;2023-08-31T04:57:22;7.72;;;3.42;;
49840;SDS011;35738;49.890;5.930;2023-08-31T04:59:50;7.72;;;3.17;;
49840;SDS011;35738;49.890;5.930;2023-08-31T05:02:16;10.20;;;3.42;;
49840;SDS011;35738;49.890;5.930;2023-08-31T05:04:43;10.40;;;3.28;;
49840;SDS011;35738;49.890;5.930;2023-08-31T05:07:09;9.60;;;2.85;;
49840;SDS011;35738;49.890;5.930;2023-08-31T05:09:35;8.73;;;2.97;;
49840;SDS011;35738;49.890;5.930;2023-08-31T05:12:02;11.13;;;3.72;;
49840;SDS011;35738;49.890;5.930;2023-08-31T05:14:29;7.72;;;3.17;;
49840;SDS011;35738;49.890;5.930;2023-08-31T05:16:56;12.23;;;3.70;;
49840;SDS011;35738;49.890;5.930;2023-08-31T05:19:22;8.88;;;3.70;;
49840;SDS011;35738;49.890;5.930;2023-08-31T05:21:50;8.05;;;3.53;;
49840;SDS011;35738;49.890;5.930;2023-08-31T05:24:17;8.68;;;3.63;;
49840;SDS011;35738;49.890;5.930;2023-08-31T05:26:43;7.82;;;3.42;;
49840;SDS011;35738;49.890;5.930;2023-08-31T05:29:10;6.72;;;3.28;;
49840;SDS011;35738;49.890;5.930;2023-08-31T05:31:36;7.95;;;3.70;;
49840;SDS011;35738;49.890;5.930;2023-08-31T05:34:03;7.70;;;3.40;;
49840;SDS011;35738;49.890;5.930;2023-08-31T05:36:30;6.82;;;3.25;;
49840;SDS011;35738;49.890;5.930;2023-08-31T05:38:56;8.60;;;3.35;;
49840;SDS011;35738;49.890;5.930;2023-08-31T05:41:22;8.60;;;3.00;;
49840;SDS011;35738;49.890;5.930;2023-08-31T05:43:49;10.25;;;3.80;;
49840;SDS011;35738;49.890;5.930;2023-08-31T05:46:15;11.48;;;3.72;;
49840;SDS011;35738;49.890;5.930;2023-08-31T05:48:42;11.05;;;4.05;;
49840;SDS011;35738;49.890;5.930;2023-08-31T05:51:09;14.40;;;4.10;;
49840;SDS011;35738;49.890;5.930;2023-08-31T05:53:35;10.98;;;3.80;;
49840;SDS011;35738;49.890;5.930;2023-08-31T05:56:02;11.38;;;4.05;;
49840;SDS011;35738;49.890;5.930;2023-08-31T05:58:33;10.93;;;4.13;;
49840;SDS011;35738;49.890;5.930;2023-08-31T06:01:01;10.50;;;3.95;;
49840;SDS011;35738;49.890;5.930;2023-08-31T06:03:28;13.18;;;4.32;;
49840;SDS011;35738;49.890;5.930;2023-08-31T06:05:55;13.60;;;5.03;;
49840;SDS011;35738;49.890;5.930;2023-08-31T06:08:23;10.02;;;4.80;;
49840;SDS011;35738;49.890;5.930;2023-08-31T06:10:49;11.60;;;4.90;;
49840;SDS011;35738;49.890;5.930;2023-08-31T06:13:16;11.35;;;5.43;;
49840;SDS011;35738;49.890;5.930;2023-08-31T06:15:42;11.13;;;4.28;;
49840;SDS011;35738;49.890;5.930;2023-08-31T06:18:10;9.73;;;4.47;;
49840;SDS011;35738;49.890;5.930;2023-08-31T06:20:37;6.78;;;4.18;;
49840;SDS011;35738;49.890;5.930;2023-08-31T06:23:03;9.68;;;4.05;;
49840;SDS011;35738;49.890;5.930;2023-08-31T06:25:30;12.38;;;4.20;;
49840;SDS011;35738;49.890;5.930;2023-08-31T06:27:56;11.43;;;4.38;;
49840;SDS011;35738;49.890;5.930;2023-08-31T06:30:23;8.98;;;3.88;;
49840;SDS011;35738;49.890;5.930;2023-08-31T06:32:49;9.30;;;3.90;;
49840;SDS011;35738;49.890;5.930;2023-08-31T06:35:16;13.50;;;3.78;;
49840;SDS011;35738;49.890;5.930;2023-08-31T06:37:44;9.98;;;3.80;;
49840;SDS011;35738;49.890;5.930;2023-08-31T06:40:12;7.30;;;3.40;;
49840;SDS011;35738;49.890;5.930;2023-08-31T06:42:38;11.10;;;3.45;;
49840;SDS011;35738;49.890;5.930;2023-08-31T06:45:06;8.68;;;3.67;;
49840;SDS011;35738;49.890;5.930;2023-08-31T06:47:33;12.93;;;4.10;;
49840;SDS011;35738;49.890;5.930;2023-08-31T06:50:00;7.38;;;3.33;;
49840;SDS011;35738;49.890;5.930;2023-08-31T06:52:27;12.70;;;3.55;;
49840;SDS011;35738;49.890;5.930;2023-08-31T06:54:57;10.45;;;3.10;;
49840;SDS011;35738;49.890;5.930;2023-08-31T06:57:25;13.18;;;3.47;;
49840;SDS011;35738;49.890;5.930;2023-08-31T06:59:52;15.02;;;3.90;;
49840;SDS011;35738;49.890;5.930;2023-08-31T07:02:19;10.05;;;3.80;;
49840;SDS011;35738;49.890;5.930;2023-08-31T07:04:46;5.15;;;2.90;;
49840;SDS011;35738;49.890;5.930;2023-08-31T07:07:14;7.00;;;3.42;;
49840;SDS011;35738;49.890;5.930;2023-08-31T07:09:46;9.23;;;3.60;;
49840;SDS011;35738;49.890;5.930;2023-08-31T07:12:14;9.35;;;3.38;;
49840;SDS011;35738;49.890;5.930;2023-08-31T07:14:41;6.63;;;3.45;;
49840;SDS011;35738;49.890;5.930;2023-08-31T07:17:08;8.52;;;3.20;;
49840;SDS011;35738;49.890;5.930;2023-08-31T07:19:35;8.85;;;3.40;;
49840;SDS011;35738;49.890;5.930;2023-08-31T07:22:03;9.25;;;2.95;;
49840;SDS011;35738;49.890;5.930;2023-08-31T07:24:30;9.10;;;3.30;;
49840;SDS011;35738;49.890;5.930;2023-08-31T07:26:57;10.75;;;3.45;;
49840;SDS011;35738;49.890;5.930;2023-08-31T07:29:23;7.25;;;3.55;;
49840;SDS011;35738;49.890;5.930;2023-08-31T07:31:49;10.85;;;3.10;;
49840;SDS011;35738;49.890;5.930;2023-08-31T07:34:16;9.15;;;3.15;;
49840;SDS011;35738;49.890;5.930;2023-08-31T07:36:42;6.55;;;3.13;;
49840;SDS011;35738;49.890;5.930;2023-08-31T07:39:10;8.10;;;3.38;;
49840;SDS011;35738;49.890;5.930;2023-08-31T07:41:36;6.47;;;2.92;;
49840;SDS011;35738;49.890;5.930;2023-08-31T07:44:02;5.80;;;2.83;;
49840;SDS011;35738;49.890;5.930;2023-08-31T07:46:30;9.32;;;3.22;;
49840;SDS011;35738;49.890;5.930;2023-08-31T07:48:57;6.93;;;2.80;;
49840;SDS011;35738;49.890;5.930;2023-08-31T07:51:24;8.75;;;2.80;;
49840;SDS011;35738;49.890;5.930;2023-08-31T07:53:52;6.57;;;2.58;;
49840;SDS011;35738;49.890;5.930;2023-08-31T07:56:18;7.22;;;2.80;;
49840;SDS011;35738;49.890;5.930;2023-08-31T07:58:45;7.80;;;2.60;;
49840;SDS011;35738;49.890;5.930;2023-08-31T08:01:11;7.10;;;2.55;;
49840;SDS011;35738;49.890;5.930;2023-08-31T08:03:38;7.85;;;2.80;;
49840;SDS011;35738;49.890;5.930;2023-08-31T08:06:04;5.95;;;2.50;;
49840;SDS011;35738;49.890;5.930;2023-08-31T08:08:31;6.22;;;2.38;;
49840;SDS011;35738;49.890;5.930;2023-08-31T08:10:57;5.30;;;2.63;;
49840;SDS011;35738;49.890;5.930;2023-08-31T08:13:25;7.55;;;2.40;;
49840;SDS011;35738;49.890;5.930;2023-08-31T08:15:52;5.10;;;1.92;;
49840;SDS011;35738;49.890;5.930;2023-08-31T08:18:18;4.70;;;2.30;;
49840;SDS011;35738;49.890;5.930;2023-08-31T08:20:47;7.47;;;2.35;;
49840;SDS011;35738;49.890;5.930;2023-08-31T08:23:14;5.30;;;2.13;;
49840;SDS011;35738;49.890;5.930;2023-08-31T08:25:41;6.50;;;2.47;;
49840;SDS011;35738;49.890;5.930;2023-08-31T08:28:07;9.80;;;2.28;;
49840;SDS011;35738;49.890;5.930;2023-08-31T08:30:34;5.43;;;2.05;;
49840;SDS011;35738;49.890;5.930;2023-08-31T08:33:00;5.93;;;2.40;;
49840;SDS011;35738;49.890;5.930;2023-08-31T08:35:27;4.82;;;2.22;;
49840;SDS011;35738;49.890;5.930;2023-08-31T08:37:53;5.95;;;2.53;;
49840;SDS011;35738;49.890;5.930;2023-08-31T08:40:20;5.95;;;2.10;;
49840;SDS011;35738;49.890;5.930;2023-08-31T08:42:46;5.95;;;2.00;;
49840;SDS011;35738;49.890;5.930;2023-08-31T08:45:14;6.05;;;2.00;;
49840;SDS011;35738;49.890;5.930;2023-08-31T08:47:43;8.20;;;1.85;;
49840;SDS011;35738;49.890;5.930;2023-08-31T08:50:11;5.70;;;2.30;;
49840;SDS011;35738;49.890;5.930;2023-08-31T08:52:39;7.18;;;2.00;;
49840;SDS011;35738;49.890;5.930;2023-08-31T08:55:06;7.18;;;2.03;;
49840;SDS011;35738;49.890;5.930;2023-08-31T08:57:34;5.88;;;1.90;;
49840;SDS011;35738;49.890;5.930;2023-08-31T09:00:01;7.90;;;2.28;;
49840;SDS011;35738;49.890;5.930;2023-08-31T09:02:29;4.78;;;1.83;;
49840;SDS011;35738;49.890;5.930;2023-08-31T09:04:55;5.45;;;1.92;;
49840;SDS011;35738;49.890;5.930;2023-08-31T09:07:23;7.18;;;1.98;;
49840;SDS011;35738;49.890;5.930;2023-08-31T09:09:50;4.10;;;1.80;;
49840;SDS011;35738;49.890;5.930;2023-08-31T09:12:18;5.55;;;2.20;;
49840;SDS011;35738;49.890;5.930;2023-08-31T09:15:02;4.93;;;2.00;;
49840;SDS011;35738;49.890;5.930;2023-08-31T09:17:39;5.93;;;2.05;;
49840;SDS011;35738;49.890;5.930;2023-08-31T09:20:08;4.55;;;1.90;;
49840;SDS011;35738;49.890;5.930;2023-08-31T09:22:35;5.75;;;2.13;;
49840;SDS011;35738;49.890;5.930;2023-08-31T09:25:02;6.53;;;1.88;;
49840;SDS011;35738;49.890;5.930;2023-08-31T09:27:30;4.75;;;1.75;;
49840;SDS011;35738;49.890;5.930;2023-08-31T09:29:57;4.78;;;1.63;;
49840;SDS011;35738;49.890;5.930;2023-08-31T09:32:24;6.85;;;2.10;;
49840;SDS011;35738;49.890;5.930;2023-08-31T09:34:50;4.78;;;1.77;;
49840;SDS011;35738;49.890;5.930;2023-08-31T09:37:31;5.68;;;1.70;;
49840;SDS011;35738;49.890;5.930;2023-08-31T09:40:01;4.55;;;1.55;;
49840;SDS011;35738;49.890;5.930;2023-08-31T09:42:38;3.13;;;1.65;;
49840;SDS011;35738;49.890;5.930;2023-08-31T09:45:05;4.63;;;1.73;;
49840;SDS011;35738;49.890;5.930;2023-08-31T09:47:32;4.55;;;2.00;;
49840;SDS011;35738;49.890;5.930;2023-08-31T09:49:59;5.68;;;2.00;;
49840;SDS011;35738;49.890;5.930;2023-08-31T09:52:26;5.53;;;1.77;;
49840;SDS011;35738;49.890;5.930;2023-08-31T09:54:52;5.63;;;1.73;;
49840;SDS011;35738;49.890;5.930;2023-08-31T09:57:19;3.92;;;1.60;;
49840;SDS011;35738;49.890;5.930;2023-08-31T10:00:05;5.40;;;1.77;;
49840;SDS011;35738;49.890;5.930;2023-08-31T10:02:33;4.35;;;1.75;;
49840;SDS011;35738;49.890;5.930;2023-08-31T10:05:00;4.60;;;1.70;;
49840;SDS011;35738;49.890;5.930;2023-08-31T10:07:29;6.13;;;1.77;;
49840;SDS011;35738;49.890;5.930;2023-08-31T10:09:55;4.70;;;1.80;;
49840;SDS011;35738;49.890;5.930;2023-08-31T10:12:23;5.90;;;2.03;;
49840;SDS011;35738;49.890;5.930;2023-08-31T10:14:50;4.85;;;2.25;;
49840;SDS011;35738;49.890;5.930;2023-08-31T10:17:18;4.68;;;2.20;;
49840;SDS011;35738;49.890;5.930;2023-08-31T10:19:46;3.72;;;1.90;;
49840;SDS011;35738;49.890;5.930;2023-08-31T10:22:13;4.38;;;1.92;;
49840;SDS011;35738;49.890;5.930;2023-08-31T10:27:36;6.45;;;1.90;;
49840;SDS011;35738;49.890;5.930;2023-08-31T10:33:33;5.10;;;1.95;;
49840;SDS011;35738;49.890;5.930;2023-08-31T10:35:41;2.88;;;1.90;;
49840;SDS011;35738;49.890;5.930;2023-08-31T10:38:14;5.55;;;2.00;;
49840;SDS011;35738;49.890;5.930;2023-08-31T10:40:41;5.68;;;1.80;;
49840;SDS011;35738;49.890;5.930;2023-08-31T10:43:14;6.90;;;1.80;;
49840;SDS011;35738;49.890;5.930;2023-08-31T10:45:45;4.90;;;1.83;;
49840;SDS011;35738;49.890;5.930;2023-08-31T10:48:12;6.68;;;3.30;;
49840;SDS011;35738;49.890;5.930;2023-08-31T10:50:41;4.72;;;2.10;;
49840;SDS011;35738;49.890;5.930;2023-08-31T10:53:08;6.82;;;2.00;;
49840;SDS011;35738;49.890;5.930;2023-08-31T10:56:10;10.65;;;1.90;;
49840;SDS011;35738;49.890;5.930;2023-08-31T10:58:31;6.50;;;2.10;;
49840;SDS011;35738;49.890;5.930;2023-08-31T11:00:59;5.68;;;1.85;;
49840;SDS011;35738;49.890;5.930;2023-08-31T11:03:26;4.65;;;1.80;;
49840;SDS011;35738;49.890;5.930;2023-08-31T11:05:53;4.15;;;1.90;;
49840;SDS011;35738;49.890;5.930;2023-08-31T11:08:21;4.90;;;1.80;;
49840;SDS011;35738;49.890;5.930;2023-08-31T11:10:52;4.57;;;1.88;;
49840;SDS011;35738;49.890;5.930;2023-08-31T11:13:19;5.32;;;1.85;;
49840;SDS011;35738;49.890;5.930;2023-08-31T11:15:45;4.45;;;1.77;;
49840;SDS011;35738;49.890;5.930;2023-08-31T11:18:13;6.93;;;2.00;;
49840;SDS011;35738;49.890;5.930;2023-08-31T11:20:43;4.95;;;1.80;;
49840;SDS011;35738;49.890;5.930;2023-08-31T11:23:10;3.90;;;1.70;;
49840;SDS011;35738;49.890;5.930;2023-08-31T11:25:37;6.50;;;2.03;;
49840;SDS011;35738;49.890;5.930;2023-08-31T11:28:05;7.43;;;2.00;;
49840;SDS011;35738;49.890;5.930;2023-08-31T11:30:33;6.97;;;3.88;;
49840;SDS011;35738;49.890;5.930;2023-08-31T11:33:04;7.03;;;2.10;;
49840;SDS011;35738;49.890;5.930;2023-08-31T11:35:33;4.95;;;2.03;;
49840;SDS011;35738;49.890;5.930;2023-08-31T11:38:03;5.35;;;2.15;;
49840;SDS011;35738;49.890;5.930;2023-08-31T11:40:30;8.30;;;2.25;;
49840;SDS011;35738;49.890;5.930;2023-08-31T11:42:57;3.95;;;1.73;;
49840;SDS011;35738;49.890;5.930;2023-08-31T11:45:26;5.57;;;2.20;;
49840;SDS011;35738;49.890;5.930;2023-08-31T11:47:54;5.85;;;2.20;;
49840;SDS011;35738;49.890;5.930;2023-08-31T11:50:21;4.53;;;2.15;;
49840;SDS011;35738;49.890;5.930;2023-08-31T11:52:49;6.28;;;2.15;;
49840;SDS011;35738;49.890;5.930;2023-08-31T11:55:17;7.55;;;2.17;;
49840;SDS011;35738;49.890;5.930;2023-08-31T11:57:51;8.55;;;2.58;;
49840;SDS011;35738;49.890;5.930;2023-08-31T12:00:19;7.78;;;2.25;;
49840;SDS011;35738;49.890;5.930;2023-08-31T12:02:59;6.68;;;2.13;;
49840;SDS011;35738;49.890;5.930;2023-08-31T12:05:26;5.18;;;2.20;;
49840;SDS011;35738;49.890;5.930;2023-08-31T12:07:54;7.20;;;2.47;;
49840;SDS011;35738;49.890;5.930;2023-08-31T12:10:23;4.85;;;2.47;;
49840;SDS011;35738;49.890;5.930;2023-08-31T12:12:51;7.80;;;2.55;;
49840;SDS011;35738;49.890;5.930;2023-08-31T12:15:19;7.80;;;2.35;;
49840;SDS011;35738;49.890;5.930;2023-08-31T12:17:48;8.40;;;2.72;;
49840;SDS011;35738;49.890;5.930;2023-08-31T12:20:24;6.30;;;2.22;;
49840;SDS011;35738;49.890;5.930;2023-08-31T12:22:54;9.40;;;2.60;;
49840;SDS011;35738;49.890;5.930;2023-08-31T12:25:21;4.78;;;2.10;;
49840;SDS011;35738;49.890;5.930;2023-08-31T12:27:47;7.65;;;2.28;;
49840;SDS011;35738;49.890;5.930;2023-08-31T12:30:14;6.53;;;2.40;;
49840;SDS011;35738;49.890;5.930;2023-08-31T12:32:41;4.90;;;2.13;;
49840;SDS011;35738;49.890;5.930;2023-08-31T12:35:07;6.85;;;2.30;;
49840;SDS011;35738;49.890;5.930;2023-08-31T12:37:36;5.95;;;2.20;;
49840;SDS011;35738;49.890;5.930;2023-08-31T12:40:02;6.95;;;2.50;;
49840;SDS011;35738;49.890;5.930;2023-08-31T12:42:32;7.60;;;2.35;;
49840;SDS011;35738;49.890;5.930;2023-08-31T12:44:58;5.75;;;2.20;;
49840;SDS011;35738;49.890;5.930;2023-08-31T12:47:25;5.40;;;2.15;;
49840;SDS011;35738;49.890;5.930;2023-08-31T12:49:51;6.30;;;1.83;;
49840;SDS011;35738;49.890;5.930;2023-08-31T12:52:18;5.63;;;2.20;;
49840;SDS011;35738;49.890;5.930;2023-08-31T12:54:44;6.88;;;2.20;;
49840;SDS011;35738;49.890;5.930;2023-08-31T12:57:10;6.80;;;2.30;;
49840;SDS011;35738;49.890;5.930;2023-08-31T12:59:37;6.53;;;1.98;;
49840;SDS011;35738;49.890;5.930;2023-08-31T13:02:03;4.85;;;1.98;;
49840;SDS011;35738;49.890;5.930;2023-08-31T13:04:33;5.45;;;2.28;;
49840;SDS011;35738;49.890;5.930;2023-08-31T13:06:59;4.30;;;2.00;;
49840;SDS011;35738;49.890;5.930;2023-08-31T13:09:26;6.97;;;2.40;;
49840;SDS011;35738;49.890;5.930;2023-08-31T13:11:54;4.55;;;2.13;;
49840;SDS011;35738;49.890;5.930;2023-08-31T13:14:20;5.53;;;2.22;;
49840;SDS011;35738;49.890;5.930;2023-08-31T13:16:47;3.33;;;1.80;;
49840;SDS011;35738;49.890;5.930;2023-08-31T13:19:13;5.30;;;1.90;;
49840;SDS011;35738;49.890;5.930;2023-08-31T13:21:39;6.38;;;2.13;;
49840;SDS011;35738;49.890;5.930;2023-08-31T13:24:06;5.82;;;2.10;;
49840;SDS011;35738;49.890;5.930;2023-08-31T13:26:33;5.53;;;1.92;;
49840;SDS011;35738;49.890;5.930;2023-08-31T13:28:59;7.20;;;2.08;;
49840;SDS011;35738;49.890;5.930;2023-08-31T13:31:26;5.32;;;2.10;;
49840;SDS011;35738;49.890;5.930;2023-08-31T13:33:54;3.75;;;2.03;;
49840;SDS011;35738;49.890;5.930;2023-08-31T13:36:21;6.25;;;2.33;;
49840;SDS011;35738;49.890;5.930;2023-08-31T13:38:47;5.97;;;2.08;;
49840;SDS011;35738;49.890;5.930;2023-08-31T13:41:14;5.55;;;2.30;;
49840;SDS011;35738;49.890;5.930;2023-08-31T13:43:40;6.72;;;2.33;;
49840;SDS011;35738;49.890;5.930;2023-08-31T13:46:07;4.38;;;2.17;;
49840;SDS011;35738;49.890;5.930;2023-08-31T13:48:34;5.43;;;2.20;;
49840;SDS011;35738;49.890;5.930;2023-08-31T13:51:00;4.63;;;2.33;;
49840;SDS011;35738;49.890;5.930;2023-08-31T13:53:27;7.55;;;2.50;;
49840;SDS011;35738;49.890;5.930;2023-08-31T13:55:54;6.80;;;2.65;;
49840;SDS011;35738;49.890;5.930;2023-08-31T13:58:21;6.50;;;2.42;;
49840;SDS011;35738;49.890;5.930;2023-08-31T14:00:47;4.72;;;2.47;;
49840;SDS011;35738;49.890;5.930;2023-08-31T14:03:15;8.48;;;3.17;;
49840;SDS011;35738;49.890;5.930;2023-08-31T14:05:42;8.15;;;2.63;;
49840;SDS011;35738;49.890;5.930;2023-08-31T14:08:13;6.90;;;2.35;;
49840;SDS011;35738;49.890;5.930;2023-08-31T14:10:40;7.85;;;2.53;;
49840;SDS011;35738;49.890;5.930;2023-08-31T14:13:07;5.07;;;2.55;;
49840;SDS011;35738;49.890;5.930;2023-08-31T14:15:33;6.65;;;2.80;;
49840;SDS011;35738;49.890;5.930;2023-08-31T14:18:00;7.80;;;2.55;;
49840;SDS011;35738;49.890;5.930;2023-08-31T14:20:26;8.52;;;3.00;;
49840;SDS011;35738;49.890;5.930;2023-08-31T14:22:52;7.07;;;2.97;;
49840;SDS011;35738;49.890;5.930;2023-08-31T14:25:19;9.88;;;3.00;;
49840;SDS011;35738;49.890;5.930;2023-08-31T14:27:46;6.72;;;2.72;;
49840;SDS011;35738;49.890;5.930;2023-08-31T14:30:14;6.38;;;3.05;;
49840;SDS011;35738;49.890;5.930;2023-08-31T14:32:40;4.25;;;2.67;;
49840;SDS011;35738;49.890;5.930;2023-08-31T14:35:07;7.93;;;2.58;;
49840;SDS011;35738;49.890;5.930;2023-08-31T14:37:33;5.20;;;2.75;;
49840;SDS011;35738;49.890;5.930;2023-08-31T14:40:00;12.90;;;3.58;;
49840;SDS011;35738;49.890;5.930;2023-08-31T14:42:26;5.20;;;2.70;;
49840;SDS011;35738;49.890;5.930;2023-08-31T14:44:52;5.00;;;2.60;;
49840;SDS011;35738;49.890;5.930;2023-08-31T14:47:19;6.68;;;2.75;;
49840;SDS011;35738;49.890;5.930;2023-08-31T14:49:45;8.20;;;3.28;;
49840;SDS011;35738;49.890;5.930;2023-08-31T14:52:12;7.95;;;2.70;;
49840;SDS011;35738;49.890;5.930;2023-08-31T14:54:38;7.18;;;2.80;;
49840;SDS011;35738;49.890;5.930;2023-08-31T14:57:05;6.95;;;2.58;;
49840;SDS011;35738;49.890;5.930;2023-08-31T14:59:32;6.18;;;2.92;;